sensor_id;sensor_type;location;lat;lon;timestamp;pressure;altitude;pressure_sealevel;temperature;humidity
56912;BME280;42800;53.928;27.662;2023-04-05T00:00:46;99773.28;;;1.33;100.00
56912;BME280;42800;53.928;27.662;2023-04-05T00:03:13;99770.16;;;1.21;100.00
56912;BME280;42800;53.928;27.662;2023-04-05T00:05:39;99774.75;;;1.21;100.00
56912;BME280;42800;53.928;27.662;2023-04-05T00:08:05;99778.16;;;1.31;100.00
56912;BME280;42800;53.928;27.662;2023-04-05T00:10:37;99776.81;;;1.29;100.00
56912;BME280;42800;53.928;27.662;2023-04-05T00:13:04;99768.78;;;1.24;100.00
56912;BME280;42800;53.928;27.662;2023-04-05T00:15:30;99776.66;;;1.20;100.00
56912;BME280;42800;53.928;27.662;2023-04-05T00:17:56;99791.44;;;1.28;100.00
56912;BME280;42800;53.928;27.662;2023-04-05T00:20:24;99776.94;;;1.18;100.00
56912;BME280;42800;53.928;27.662;2023-04-05T00:22:50;99786.41;;;1.16;100.00
56912;BME280;42800;53.928;27.662;2023-04-05T00:25:16;99786.47;;;1.11;100.00
56912;BME280;42800;53.928;27.662;2023-04-05T00:27:43;99788.16;;;1.07;100.00
56912;BME280;42800;53.928;27.662;2023-04-05T00:30:10;99780.41;;;1.00;100.00
56912;BME280;42800;53.928;27.662;2023-04-05T00:32:36;99791.09;;;1.10;100.00
56912;BME280;42800;53.928;27.662;2023-04-05T00:35:03;99790.84;;;1.07;100.00
56912;BME280;42800;53.928;27.662;2023-04-05T00:37:29;99777.66;;;0.76;100.00
56912;BME280;42800;53.928;27.662;2023-04-05T00:39:55;99768.75;;;0.76;100.00
56912;BME280;42800;53.928;27.662;2023-04-05T00:42:21;99784.09;;;0.80;100.00
56912;BME280;42800;53.928;27.662;2023-04-05T00:44:47;99782.19;;;0.81;100.00
56912;BME280;42800;53.928;27.662;2023-04-05T00:47:14;99777.88;;;0.80;100.00
56912;BME280;42800;53.928;27.662;2023-04-05T00:49:40;99782.81;;;0.73;100.00
56912;BME280;42800;53.928;27.662;2023-04-05T00:52:06;99787.88;;;0.79;100.00
56912;BME280;42800;53.928;27.662;2023-04-05T00:54:33;99781.66;;;0.79;100.00
56912;BME280;42800;53.928;27.662;2023-04-05T00:56:59;99774.78;;;0.67;100.00
56912;BME280;42800;53.928;27.662;2023-04-05T00:59:26;99777.72;;;0.71;100.00
56912;BME280;42800;53.928;27.662;2023-04-05T01:01:56;99785.50;;;0.73;100.00
56912;BME280;42800;53.928;27.662;2023-04-05T01:04:27;99781.41;;;0.80;100.00
56912;BME280;42800;53.928;27.662;2023-04-05T01:07:04;99779.03;;;0.74;100.00
56912;BME280;42800;53.928;27.662;2023-04-05T01:09:36;99788.38;;;0.52;100.00
56912;BME280;42800;53.928;27.662;2023-04-05T01:12:06;99788.78;;;0.69;100.00
56912;BME280;42800;53.928;27.662;2023-04-05T01:14:43;99782.53;;;0.74;100.00
56912;BME280;42800;53.928;27.662;2023-04-05T01:17:09;99784.66;;;0.77;100.00
56912;BME280;42800;53.928;27.662;2023-04-05T01:19:35;99775.03;;;0.66;100.00
56912;BME280;42800;53.928;27.662;2023-04-05T01:25:21;99789.78;;;0.79;100.00
56912;BME280;42800;53.928;27.662;2023-04-05T01:28:07;99773.75;;;0.63;100.00
56912;BME280;42800;53.928;27.662;2023-04-05T01:30:38;99762.44;;;0.56;100.00
56912;BME280;42800;53.928;27.662;2023-04-05T01:33:11;99769.72;;;0.61;100.00
56912;BME280;42800;53.928;27.662;2023-04-05T01:35:41;99767.81;;;0.61;100.00
56912;BME280;42800;53.928;27.662;2023-04-05T01:38:11;99771.31;;;0.62;100.00
56912;BME280;42800;53.928;27.662;2023-04-05T01:40:41;99774.31;;;0.60;100.00
56912;BME280;42800;53.928;27.662;2023-04-05T01:43:12;99764.66;;;0.49;100.00
56912;BME280;42800;53.928;27.662;2023-04-05T01:45:39;99767.03;;;0.56;100.00
56912;BME280;42800;53.928;27.662;2023-04-05T01:48:05;99762.84;;;0.44;100.00
56912;BME280;42800;53.928;27.662;2023-04-05T01:50:31;99765.22;;;0.51;100.00
56912;BME280;42800;53.928;27.662;2023-04-05T01:52:57;99768.94;;;0.55;100.00
56912;BME280;42800;53.928;27.662;2023-04-05T01:55:23;99765.78;;;0.48;100.00
56912;BME280;42800;53.928;27.662;2023-04-05T01:57:50;99763.94;;;0.43;100.00
56912;BME280;42800;53.928;27.662;2023-04-05T02:00:16;99769.00;;;0.50;100.00
56912;BME280;42800;53.928;27.662;2023-04-05T02:02:43;99771.88;;;0.59;100.00
56912;BME280;42800;53.928;27.662;2023-04-05T02:05:09;99779.69;;;0.60;100.00
56912;BME280;42800;53.928;27.662;2023-04-05T02:07:35;99786.84;;;0.75;100.00
56912;BME280;42800;53.928;27.662;2023-04-05T02:10:01;99780.44;;;0.66;100.00
56912;BME280;42800;53.928;27.662;2023-04-05T02:12:27;99781.25;;;0.66;100.00
56912;BME280;42800;53.928;27.662;2023-04-05T02:14:53;99770.78;;;0.60;100.00
56912;BME280;42800;53.928;27.662;2023-04-05T02:17:19;99770.59;;;0.51;100.00
56912;BME280;42800;53.928;27.662;2023-04-05T02:19:46;99766.47;;;0.59;100.00
56912;BME280;42800;53.928;27.662;2023-04-05T02:22:14;99776.69;;;0.62;100.00
56912;BME280;42800;53.928;27.662;2023-04-05T02:24:40;99765.88;;;0.67;100.00
56912;BME280;42800;53.928;27.662;2023-04-05T02:27:06;99767.84;;;0.56;100.00
56912;BME280;42800;53.928;27.662;2023-04-05T02:29:32;99764.41;;;0.51;100.00
56912;BME280;42800;53.928;27.662;2023-04-05T02:31:59;99770.84;;;0.55;100.00
56912;BME280;42800;53.928;27.662;2023-04-05T02:34:25;99770.28;;;0.58;100.00
56912;BME280;42800;53.928;27.662;2023-04-05T02:36:52;99785.22;;;0.45;100.00
56912;BME280;42800;53.928;27.662;2023-04-05T02:39:18;99787.88;;;0.50;100.00
56912;BME280;42800;53.928;27.662;2023-04-05T02:41:45;99792.44;;;0.50;100.00
56912;BME280;42800;53.928;27.662;2023-04-05T02:44:11;99794.78;;;0.61;100.00
56912;BME280;42800;53.928;27.662;2023-04-05T02:46:37;99783.69;;;0.63;100.00
56912;BME280;42800;53.928;27.662;2023-04-05T02:49:03;99781.84;;;0.63;100.00
56912;BME280;42800;53.928;27.662;2023-04-05T02:51:29;99778.28;;;0.68;100.00
56912;BME280;42800;53.928;27.662;2023-04-05T02:54:00;99777.19;;;0.69;100.00
56912;BME280;42800;53.928;27.662;2023-04-05T02:56:26;99775.34;;;0.64;100.00
56912;BME280;42800;53.928;27.662;2023-04-05T02:58:52;99786.31;;;0.73;100.00
56912;BME280;42800;53.928;27.662;2023-04-05T03:01:17;99783.13;;;0.66;100.00
56912;BME280;42800;53.928;27.662;2023-04-05T03:03:44;99784.66;;;0.77;100.00
56912;BME280;42800;53.928;27.662;2023-04-05T03:06:10;99782.47;;;0.79;100.00
56912;BME280;42800;53.928;27.662;2023-04-05T03:08:36;99798.19;;;0.72;100.00
56912;BME280;42800;53.928;27.662;2023-04-05T03:11:04;99803.00;;;0.80;100.00
56912;BME280;42800;53.928;27.662;2023-04-05T03:13:31;99792.56;;;0.68;100.00
56912;BME280;42800;53.928;27.662;2023-04-05T03:15:57;99800.63;;;0.74;100.00
56912;BME280;42800;53.928;27.662;2023-04-05T03:18:22;99792.56;;;0.68;100.00
56912;BME280;42800;53.928;27.662;2023-04-05T03:20:50;99799.22;;;0.76;100.00
56912;BME280;42800;53.928;27.662;2023-04-05T03:23:21;99804.00;;;0.55;100.00
56912;BME280;42800;53.928;27.662;2023-04-05T03:25:53;99815.53;;;0.66;100.00
56912;BME280;42800;53.928;27.662;2023-04-05T03:28:19;99800.44;;;0.60;100.00
56912;BME280;42800;53.928;27.662;2023-04-05T03:30:45;99805.81;;;0.65;100.00
56912;BME280;42800;53.928;27.662;2023-04-05T03:33:11;99812.00;;;0.70;100.00
56912;BME280;42800;53.928;27.662;2023-04-05T03:35:37;99812.13;;;0.84;100.00
56912;BME280;42800;53.928;27.662;2023-04-05T03:38:03;99807.22;;;0.86;100.00
56912;BME280;42800;53.928;27.662;2023-04-05T03:40:29;99809.84;;;0.67;100.00
56912;BME280;42800;53.928;27.662;2023-04-05T03:42:55;99810.75;;;0.58;100.00
56912;BME280;42800;53.928;27.662;2023-04-05T03:45:21;99800.41;;;0.70;100.00
56912;BME280;42800;53.928;27.662;2023-04-05T03:47:47;99800.72;;;0.63;100.00
56912;BME280;42800;53.928;27.662;2023-04-05T03:50:13;99800.72;;;0.63;100.00
56912;BME280;42800;53.928;27.662;2023-04-05T03:52:39;99805.44;;;0.77;100.00
56912;BME280;42800;53.928;27.662;2023-04-05T03:55:06;99802.81;;;0.66;100.00
56912;BME280;42800;53.928;27.662;2023-04-05T03:57:32;99798.59;;;0.60;100.00
56912;BME280;42800;53.928;27.662;2023-04-05T03:59:58;99803.44;;;0.58;100.00
56912;BME280;42800;53.928;27.662;2023-04-05T04:02:25;99805.34;;;0.58;100.00
56912;BME280;42800;53.928;27.662;2023-04-05T04:04:51;99805.53;;;0.66;100.00
56912;BME280;42800;53.928;27.662;2023-04-05T04:07:17;99797.38;;;0.42;100.00
56912;BME280;42800;53.928;27.662;2023-04-05T04:09:43;99798.38;;;0.52;100.00
56912;BME280;42800;53.928;27.662;2023-04-05T04:12:09;99796.03;;;0.40;100.00
56912;BME280;42800;53.928;27.662;2023-04-05T04:14:35;99799.19;;;0.52;100.00
56912;BME280;42800;53.928;27.662;2023-04-05T04:17:01;99799.88;;;0.34;100.00
56912;BME280;42800;53.928;27.662;2023-04-05T04:19:28;99801.84;;;0.57;100.00
56912;BME280;42800;53.928;27.662;2023-04-05T04:21:54;99789.88;;;0.68;100.00
56912;BME280;42800;53.928;27.662;2023-04-05T04:24:20;99793.84;;;0.76;100.00
56912;BME280;42800;53.928;27.662;2023-04-05T04:26:47;99787.06;;;0.79;100.00
56912;BME280;42800;53.928;27.662;2023-04-05T04:29:13;99771.88;;;0.59;100.00
56912;BME280;42800;53.928;27.662;2023-04-05T04:31:40;99775.03;;;0.66;100.00
56912;BME280;42800;53.928;27.662;2023-04-05T04:34:10;99771.28;;;0.67;100.00
56912;BME280;42800;53.928;27.662;2023-04-05T04:36:36;99769.38;;;0.67;100.00
56912;BME280;42800;53.928;27.662;2023-04-05T04:39:03;99775.72;;;0.82;100.00
56912;BME280;42800;53.928;27.662;2023-04-05T04:41:30;99774.69;;;0.78;100.00
56912;BME280;42800;53.928;27.662;2023-04-05T04:43:58;99780.09;;;1.02;100.00
56912;BME280;42800;53.928;27.662;2023-04-05T04:46:27;99771.06;;;0.87;100.00
56912;BME280;42800;53.928;27.662;2023-04-05T04:48:55;99767.22;;;0.93;100.00
56912;BME280;42800;53.928;27.662;2023-04-05T04:51:21;99759.06;;;0.99;100.00
56912;BME280;42800;53.928;27.662;2023-04-05T04:53:48;99753.44;;;0.95;100.00
56912;BME280;42800;53.928;27.662;2023-04-05T04:56:14;99752.06;;;0.98;100.00
56912;BME280;42800;53.928;27.662;2023-04-05T04:58:40;99751.41;;;0.82;100.00
56912;BME280;42800;53.928;27.662;2023-04-05T05:01:06;99753.34;;;0.76;100.00
56912;BME280;42800;53.928;27.662;2023-04-05T05:03:33;99761.75;;;0.75;100.00
56912;BME280;42800;53.928;27.662;2023-04-05T05:06:00;99764.09;;;0.81;100.00
56912;BME280;42800;53.928;27.662;2023-04-05T05:08:26;99767.22;;;0.93;100.00
56912;BME280;42800;53.928;27.662;2023-04-05T05:10:53;99762.34;;;0.96;100.00
56912;BME280;42800;53.928;27.662;2023-04-05T05:13:19;99778.72;;;1.04;100.00
56912;BME280;42800;53.928;27.662;2023-04-05T05:15:45;99767.47;;;0.97;100.00
56912;BME280;42800;53.928;27.662;2023-04-05T05:18:12;99771.63;;;1.32;100.00
56912;BME280;42800;53.928;27.662;2023-04-05T05:20:39;99758.22;;;1.46;100.00
56912;BME280;42800;53.928;27.662;2023-04-05T05:23:05;99722.16;;;1.37;100.00
56912;BME280;42800;53.928;27.662;2023-04-05T05:25:31;99705.03;;;1.47;100.00
56912;BME280;42800;53.928;27.662;2023-04-05T05:27:58;99686.03;;;1.52;100.00
56912;BME280;42800;53.928;27.662;2023-04-05T05:30:24;99665.56;;;1.64;100.00
56912;BME280;42800;53.928;27.662;2023-04-05T05:32:51;99642.41;;;1.77;100.00
56912;BME280;42800;53.928;27.662;2023-04-05T05:35:17;99623.75;;;2.08;100.00
56912;BME280;42800;53.928;27.662;2023-04-05T05:37:43;99559.03;;;1.98;100.00
56912;BME280;42800;53.928;27.662;2023-04-05T05:40:09;99514.91;;;2.17;100.00
56912;BME280;42800;53.928;27.662;2023-04-05T05:42:37;99478.31;;;2.47;100.00
56912;BME280;42800;53.928;27.662;2023-04-05T05:45:05;99393.47;;;2.51;100.00
56912;BME280;42800;53.928;27.662;2023-04-05T05:47:31;99334.78;;;2.83;100.00
56912;BME280;42800;53.928;27.662;2023-04-05T05:49:57;99221.50;;;2.76;100.00
56912;BME280;42800;53.928;27.662;2023-04-05T05:52:23;99141.78;;;2.91;100.00
56912;BME280;42800;53.928;27.662;2023-04-05T05:54:49;99091.63;;;2.94;100.00
56912;BME280;42800;53.928;27.662;2023-04-05T05:57:15;99037.16;;;3.04;100.00
56912;BME280;42800;53.928;27.662;2023-04-05T05:59:41;98947.78;;;2.69;100.00
56912;BME280;42800;53.928;27.662;2023-04-05T06:02:08;98963.38;;;2.90;100.00
56912;BME280;42800;53.928;27.662;2023-04-05T06:04:34;98999.38;;;2.64;100.00
56912;BME280;42800;53.928;27.662;2023-04-05T06:07:02;99011.97;;;2.77;100.00
56912;BME280;42800;53.928;27.662;2023-04-05T06:09:28;98959.25;;;2.92;100.00
56912;BME280;42800;53.928;27.662;2023-04-05T06:11:55;98926.91;;;2.96;100.00
56912;BME280;42800;53.928;27.662;2023-04-05T06:14:21;98895.34;;;3.00;100.00
56912;BME280;42800;53.928;27.662;2023-04-05T06:16:47;98889.03;;;2.87;100.00
56912;BME280;42800;53.928;27.662;2023-04-05T06:19:13;98918.97;;;2.91;100.00
56912;BME280;42800;53.928;27.662;2023-04-05T06:21:39;98899.53;;;2.97;100.00
56912;BME280;42800;53.928;27.662;2023-04-05T06:24:06;98855.72;;;2.95;100.00
56912;BME280;42800;53.928;27.662;2023-04-05T06:26:31;98889.44;;;3.24;100.00
56912;BME280;42800;53.928;27.662;2023-04-05T06:28:57;98813.97;;;2.96;100.00
56912;BME280;42800;53.928;27.662;2023-04-05T06:31:29;98813.81;;;3.01;100.00
56912;BME280;42800;53.928;27.662;2023-04-05T06:33:55;98809.47;;;3.18;100.00
56912;BME280;42800;53.928;27.662;2023-04-05T06:36:22;98793.56;;;2.99;100.00
56912;BME280;42800;53.928;27.662;2023-04-05T06:38:49;98748.25;;;2.87;100.00
56912;BME280;42800;53.928;27.662;2023-04-05T06:41:15;98776.41;;;2.86;100.00
56912;BME280;42800;53.928;27.662;2023-04-05T06:43:41;98766.47;;;3.08;100.00
56912;BME280;42800;53.928;27.662;2023-04-05T06:46:07;98784.88;;;2.85;100.00
56912;BME280;42800;53.928;27.662;2023-04-05T06:48:35;98799.06;;;2.73;100.00
56912;BME280;42800;53.928;27.662;2023-04-05T06:51:02;98877.41;;;2.69;100.00
56912;BME280;42800;53.928;27.662;2023-04-05T06:53:29;98906.72;;;2.67;100.00
56912;BME280;42800;53.928;27.662;2023-04-05T06:55:56;98887.75;;;2.85;100.00
56912;BME280;42800;53.928;27.662;2023-04-05T06:58:23;98878.50;;;2.94;100.00
56912;BME280;42800;53.928;27.662;2023-04-05T07:00:49;98887.41;;;3.03;100.00
56912;BME280;42800;53.928;27.662;2023-04-05T07:03:15;98901.31;;;2.67;100.00
56912;BME280;42800;53.928;27.662;2023-04-05T07:05:49;99020.72;;;2.92;100.00
56912;BME280;42800;53.928;27.662;2023-04-05T07:08:16;99010.16;;;2.55;100.00
56912;BME280;42800;53.928;27.662;2023-04-05T07:10:43;99063.16;;;2.56;100.00
56912;BME280;42800;53.928;27.662;2023-04-05T07:13:09;99101.56;;;2.58;100.00
56912;BME280;42800;53.928;27.662;2023-04-05T07:15:35;99124.00;;;2.59;100.00
56912;BME280;42800;53.928;27.662;2023-04-05T07:18:01;99146.88;;;2.93;100.00
56912;BME280;42800;53.928;27.662;2023-04-05T07:20:26;99055.44;;;2.81;100.00
56912;BME280;42800;53.928;27.662;2023-04-05T07:22:52;99052.16;;;2.44;100.00
56912;BME280;42800;53.928;27.662;2023-04-05T07:25:18;99126.13;;;2.40;100.00
56912;BME280;42800;53.928;27.662;2023-04-05T07:27:45;99165.66;;;2.80;100.00
56912;BME280;42800;53.928;27.662;2023-04-05T07:30:12;99067.16;;;2.50;100.00
56912;BME280;42800;53.928;27.662;2023-04-05T07:32:38;99059.22;;;2.63;100.00
56912;BME280;42800;53.928;27.662;2023-04-05T07:35:05;98985.19;;;2.58;100.00
56912;BME280;42800;53.928;27.662;2023-04-05T07:37:31;98991.72;;;2.66;100.00
56912;BME280;42800;53.928;27.662;2023-04-05T07:39:57;99017.41;;;2.95;100.00
56912;BME280;42800;53.928;27.662;2023-04-05T07:42:23;98984.25;;;2.80;100.00
56912;BME280;42800;53.928;27.662;2023-04-05T07:44:50;99001.75;;;3.35;100.00
56912;BME280;42800;53.928;27.662;2023-04-05T07:47:16;98937.03;;;3.42;100.00
56912;BME280;42800;53.928;27.662;2023-04-05T07:49:42;98828.47;;;3.47;100.00
56912;BME280;42800;53.928;27.662;2023-04-05T07:52:08;98782.88;;;3.11;100.00
56912;BME280;42800;53.928;27.662;2023-04-05T07:54:34;98854.72;;;3.09;100.00
56912;BME280;42800;53.928;27.662;2023-04-05T07:57:00;98839.91;;;3.06;100.00
56912;BME280;42800;53.928;27.662;2023-04-05T07:59:26;98836.59;;;3.00;100.00
56912;BME280;42800;53.928;27.662;2023-04-05T08:01:53;98887.69;;;3.19;100.00
56912;BME280;42800;53.928;27.662;2023-04-05T08:04:19;98814.66;;;3.32;100.00
56912;BME280;42800;53.928;27.662;2023-04-05T08:06:45;98774.50;;;3.34;100.00
56912;BME280;42800;53.928;27.662;2023-04-05T08:09:11;98785.31;;;2.95;100.00
56912;BME280;42800;53.928;27.662;2023-04-05T08:11:37;98758.22;;;3.04;100.00
56912;BME280;42800;53.928;27.662;2023-04-05T08:14:03;98764.06;;;3.06;100.00
56912;BME280;42800;53.928;27.662;2023-04-05T08:16:29;98829.03;;;3.23;100.00
56912;BME280;42800;53.928;27.662;2023-04-05T08:18:56;98816.06;;;3.38;100.00
56912;BME280;42800;53.928;27.662;2023-04-05T08:21:22;98749.44;;;3.07;100.00
56912;BME280;42800;53.928;27.662;2023-04-05T08:23:48;98767.63;;;2.98;100.00
56912;BME280;42800;53.928;27.662;2023-04-05T08:26:15;98844.81;;;3.21;100.00
56912;BME280;42800;53.928;27.662;2023-04-05T08:28:41;98890.44;;;3.58;100.00
56912;BME280;42800;53.928;27.662;2023-04-05T08:31:07;98840.38;;;3.55;100.00
56912;BME280;42800;53.928;27.662;2023-04-05T08:33:32;98805.78;;;3.82;100.00
56912;BME280;42800;53.928;27.662;2023-04-05T08:36:03;98732.03;;;4.30;100.00
56912;BME280;42800;53.928;27.662;2023-04-05T08:38:30;98676.91;;;4.17;100.00
56912;BME280;42800;53.928;27.662;2023-04-05T08:41:06;98621.25;;;3.99;100.00
56912;BME280;42800;53.928;27.662;2023-04-05T08:43:39;98554.09;;;3.96;100.00
56912;BME280;42800;53.928;27.662;2023-04-05T08:46:13;98557.25;;;3.86;100.00
56912;BME280;42800;53.928;27.662;2023-04-05T08:48:40;98572.91;;;3.68;100.00
56912;BME280;42800;53.928;27.662;2023-04-05T08:51:07;98584.72;;;3.84;100.00
56912;BME280;42800;53.928;27.662;2023-04-05T08:53:33;98630.16;;;3.66;100.00
56912;BME280;42800;53.928;27.662;2023-04-05T08:56:01;98638.97;;;3.63;100.00
56912;BME280;42800;53.928;27.662;2023-04-05T08:58:30;98671.69;;;3.58;100.00
56912;BME280;42800;53.928;27.662;2023-04-05T09:00:58;98691.13;;;3.60;100.00
56912;BME280;42800;53.928;27.662;2023-04-05T09:03:27;98638.63;;;3.65;100.00
56912;BME280;42800;53.928;27.662;2023-04-05T09:05:57;98660.75;;;3.46;100.00
56912;BME280;42800;53.928;27.662;2023-04-05T09:08:24;98651.31;;;3.52;100.00
56912;BME280;42800;53.928;27.662;2023-04-05T09:10:50;98691.53;;;3.50;100.00
56912;BME280;42800;53.928;27.662;2023-04-05T09:13:16;98724.88;;;3.63;100.00
56912;BME280;42800;53.928;27.662;2023-04-05T09:15:43;98781.88;;;3.84;100.00
56912;BME280;42800;53.928;27.662;2023-04-05T09:18:09;98787.94;;;4.01;100.00
56912;BME280;42800;53.928;27.662;2023-04-05T09:20:35;98738.53;;;3.96;100.00
56912;BME280;42800;53.928;27.662;2023-04-05T09:23:02;98793.50;;;4.05;100.00
56912;BME280;42800;53.928;27.662;2023-04-05T09:25:36;98774.50;;;4.26;100.00
56912;BME280;42800;53.928;27.662;2023-04-05T09:28:04;98715.31;;;3.86;100.00
56912;BME280;42800;53.928;27.662;2023-04-05T09:30:30;98720.91;;;4.23;100.00
56912;BME280;42800;53.928;27.662;2023-04-05T09:32:57;98772.06;;;4.33;100.00
56912;BME280;42800;53.928;27.662;2023-04-05T09:35:25;98733.06;;;4.38;100.00
56912;BME280;42800;53.928;27.662;2023-04-05T09:37:54;98705.09;;;4.25;100.00
56912;BME280;42800;53.928;27.662;2023-04-05T09:40:21;98716.00;;;4.16;100.00
56912;BME280;42800;53.928;27.662;2023-04-05T09:42:48;98689.53;;;4.34;100.00
56912;BME280;42800;53.928;27.662;2023-04-05T09:45:15;98609.34;;;4.24;100.00
56912;BME280;42800;53.928;27.662;2023-04-05T09:47:53;98644.53;;;4.00;100.00
56912;BME280;42800;53.928;27.662;2023-04-05T09:50:19;98637.84;;;4.31;100.00
56912;BME280;42800;53.928;27.662;2023-04-05T09:52:45;98625.88;;;4.56;100.00
56912;BME280;42800;53.928;27.662;2023-04-05T09:55:12;98567.75;;;4.45;100.00
56912;BME280;42800;53.928;27.662;2023-04-05T09:57:39;98597.94;;;4.43;100.00
56912;BME280;42800;53.928;27.662;2023-04-05T10:00:17;98611.97;;;4.58;100.00
56912;BME280;42800;53.928;27.662;2023-04-05T10:02:45;98579.94;;;4.39;100.00
56912;BME280;42800;53.928;27.662;2023-04-05T10:05:12;98631.56;;;4.63;100.00
56912;BME280;42800;53.928;27.662;2023-04-05T10:07:40;98593.31;;;4.44;100.00
56912;BME280;42800;53.928;27.662;2023-04-05T10:10:07;98622.94;;;4.49;100.00
56912;BME280;42800;53.928;27.662;2023-04-05T10:12:37;98630.25;;;4.36;100.00
56912;BME280;42800;53.928;27.662;2023-04-05T10:15:04;98663.22;;;4.47;100.00
56912;BME280;42800;53.928;27.662;2023-04-05T10:17:36;98697.13;;;4.41;100.00
56912;BME280;42800;53.928;27.662;2023-04-05T10:20:09;98722.94;;;4.59;100.00
56912;BME280;42800;53.928;27.662;2023-04-05T10:22:42;98776.31;;;4.55;100.00
56912;BME280;42800;53.928;27.662;2023-04-05T10:25:19;98773.59;;;4.55;100.00
56912;BME280;42800;53.928;27.662;2023-04-05T10:27:52;98770.16;;;4.34;100.00
56912;BME280;42800;53.928;27.662;2023-04-05T10:30:19;98739.88;;;4.23;100.00
56912;BME280;42800;53.928;27.662;2023-04-05T10:33:00;98745.38;;;4.35;100.00
56912;BME280;42800;53.928;27.662;2023-04-05T10:35:33;98817.19;;;4.38;100.00
56912;BME280;42800;53.928;27.662;2023-04-05T10:38:16;98840.81;;;4.58;100.00
56912;BME280;42800;53.928;27.662;2023-04-05T10:40:46;98799.06;;;4.51;100.00
56912;BME280;42800;53.928;27.662;2023-04-05T10:43:15;98813.38;;;4.72;100.00
56912;BME280;42800;53.928;27.662;2023-04-05T10:45:43;98761.41;;;4.61;100.00
56912;BME280;42800;53.928;27.662;2023-04-05T10:48:23;98778.41;;;4.37;100.00
56912;BME280;42800;53.928;27.662;2023-04-05T10:50:53;98785.34;;;4.47;100.00
56912;BME280;42800;53.928;27.662;2023-04-05T10:53:21;98778.44;;;4.49;100.00
56912;BME280;42800;53.928;27.662;2023-04-05T10:55:48;98808.94;;;4.34;100.00
56912;BME280;42800;53.928;27.662;2023-04-05T10:58:15;98847.56;;;4.52;100.00
56912;BME280;42800;53.928;27.662;2023-04-05T11:00:41;98849.22;;;4.65;100.00
56912;BME280;42800;53.928;27.662;2023-04-05T11:03:09;98816.44;;;4.70;100.00
56912;BME280;42800;53.928;27.662;2023-04-05T11:05:35;98777.91;;;5.02;100.00
56912;BME280;42800;53.928;27.662;2023-04-05T11:08:04;98737.50;;;5.12;100.00
56912;BME280;42800;53.928;27.662;2023-04-05T11:10:34;98679.56;;;4.84;100.00
56912;BME280;42800;53.928;27.662;2023-04-05T11:13:08;98630.84;;;5.15;100.00
56912;BME280;42800;53.928;27.662;2023-04-05T11:15:35;98605.91;;;5.38;100.00
56912;BME280;42800;53.928;27.662;2023-04-05T11:18:03;98610.78;;;5.32;100.00
56912;BME280;42800;53.928;27.662;2023-04-05T11:20:44;98616.97;;;5.57;100.00
56912;BME280;42800;53.928;27.662;2023-04-05T11:23:11;98578.91;;;5.57;100.00
56912;BME280;42800;53.928;27.662;2023-04-05T11:25:39;98545.34;;;5.25;100.00
56912;BME280;42800;53.928;27.662;2023-04-05T11:28:06;98604.63;;;4.83;100.00
56912;BME280;42800;53.928;27.662;2023-04-05T11:30:46;98682.50;;;4.91;100.00
56912;BME280;42800;53.928;27.662;2023-04-05T11:33:35;98714.38;;;4.69;100.00
56912;BME280;42800;53.928;27.662;2023-04-05T11:36:02;98748.94;;;4.93;100.00
56912;BME280;42800;53.928;27.662;2023-04-05T11:38:28;98772.47;;;4.56;100.00
56912;BME280;42800;53.928;27.662;2023-04-05T11:41:04;98873.53;;;4.62;100.00
56912;BME280;42800;53.928;27.662;2023-04-05T11:43:32;98819.56;;;4.60;100.00
56912;BME280;42800;53.928;27.662;2023-04-05T11:46:01;98860.63;;;4.38;100.00
56912;BME280;42800;53.928;27.662;2023-04-05T11:48:27;98889.56;;;4.34;100.00
56912;BME280;42800;53.928;27.662;2023-04-05T11:50:55;98899.88;;;4.61;100.00
56912;BME280;42800;53.928;27.662;2023-04-05T11:53:22;98932.50;;;4.53;100.00
56912;BME280;42800;53.928;27.662;2023-04-05T11:55:49;98997.94;;;4.60;100.00
56912;BME280;42800;53.928;27.662;2023-04-05T11:58:17;99014.16;;;4.77;100.00
56912;BME280;42800;53.928;27.662;2023-04-05T12:00:44;98994.66;;;4.54;100.00
56912;BME280;42800;53.928;27.662;2023-04-05T12:03:11;98968.56;;;4.32;100.00
56912;BME280;42800;53.928;27.662;2023-04-05T12:05:48;99037.56;;;4.61;100.00
56912;BME280;42800;53.928;27.662;2023-04-05T12:08:14;99012.03;;;4.53;100.00
56912;BME280;42800;53.928;27.662;2023-04-05T12:10:41;99038.63;;;4.68;100.00
56912;BME280;42800;53.928;27.662;2023-04-05T12:13:06;99054.28;;;4.71;100.00
56912;BME280;42800;53.928;27.662;2023-04-05T12:15:36;99044.19;;;4.72;100.00
56912;BME280;42800;53.928;27.662;2023-04-05T12:18:02;99070.66;;;4.54;100.00
56912;BME280;42800;53.928;27.662;2023-04-05T12:20:29;99125.97;;;4.32;100.00
56912;BME280;42800;53.928;27.662;2023-04-05T12:22:56;99170.06;;;4.76;100.00
56912;BME280;42800;53.928;27.662;2023-04-05T12:25:22;99218.94;;;4.85;100.00
56912;BME280;42800;53.928;27.662;2023-04-05T12:27:49;99136.38;;;5.07;100.00
56912;BME280;42800;53.928;27.662;2023-04-05T12:30:16;99087.66;;;5.23;100.00
56912;BME280;42800;53.928;27.662;2023-04-05T12:32:46;99044.16;;;4.81;100.00
56912;BME280;42800;53.928;27.662;2023-04-05T12:35:15;99123.31;;;4.62;100.00
56912;BME280;42800;53.928;27.662;2023-04-05T12:37:41;99115.47;;;4.99;100.00
56912;BME280;42800;53.928;27.662;2023-04-05T12:40:09;99114.72;;;4.89;100.00
56912;BME280;42800;53.928;27.662;2023-04-05T12:42:36;99107.00;;;4.70;100.00
56912;BME280;42800;53.928;27.662;2023-04-05T12:45:04;99164.69;;;4.67;100.00
56912;BME280;42800;53.928;27.662;2023-04-05T12:47:32;99226.72;;;4.95;100.00
56912;BME280;42800;53.928;27.662;2023-04-05T12:50:09;99265.94;;;4.77;100.00
56912;BME280;42800;53.928;27.662;2023-04-05T12:52:35;99303.13;;;4.85;100.00
56912;BME280;42800;53.928;27.662;2023-04-05T12:55:00;99280.59;;;4.84;100.00